sensor_id;sensor_type;location;lat;lon;timestamp;P1;durP1;ratioP1;P2;durP2;ratioP2
10122;SDS011;5101;49.038;8.710;2023-04-24T00:00:00;1.00;;;0.43;;
10122;SDS011;5101;49.038;8.710;2023-04-24T00:02:26;1.63;;;0.60;;
10122;SDS011;5101;49.038;8.710;2023-04-24T00:04:51;1.83;;;0.63;;
10122;SDS011;5101;49.038;8.710;2023-04-24T00:07:17;1.50;;;0.50;;
10122;SDS011;5101;49.038;8.710;2023-04-24T00:09:44;1.50;;;0.30;;
10122;SDS011;5101;49.038;8.710;2023-04-24T00:12:10;1.80;;;0.32;;
10122;SDS011;5101;49.038;8.710;2023-04-24T00:14:36;0.85;;;0.50;;
10122;SDS011;5101;49.038;8.710;2023-04-24T00:17:01;1.85;;;0.50;;
10122;SDS011;5101;49.038;8.710;2023-04-24T00:19:28;1.98;;;0.30;;
10122;SDS011;5101;49.038;8.710;2023-04-24T00:21:53;1.65;;;0.40;;
10122;SDS011;5101;49.038;8.710;2023-04-24T00:24:20;0.57;;;0.40;;
10122;SDS011;5101;49.038;8.710;2023-04-24T00:26:46;1.38;;;0.32;;
10122;SDS011;5101;49.038;8.710;2023-04-24T00:29:11;1.05;;;0.57;;
10122;SDS011;5101;49.038;8.710;2023-04-24T00:31:37;1.00;;;0.38;;
10122;SDS011;5101;49.038;8.710;2023-04-24T00:34:03;1.40;;;0.40;;
10122;SDS011;5101;49.038;8.710;2023-04-24T00:36:29;2.55;;;0.57;;
10122;SDS011;5101;49.038;8.710;2023-04-24T00:38:56;0.35;;;0.32;;
10122;SDS011;5101;49.038;8.710;2023-04-24T00:41:21;1.55;;;0.50;;
10122;SDS011;5101;49.038;8.710;2023-04-24T00:43:49;1.40;;;0.38;;
10122;SDS011;5101;49.038;8.710;2023-04-24T00:46:15;0.98;;;0.30;;
10122;SDS011;5101;49.038;8.710;2023-04-24T00:48:41;0.70;;;0.47;;
10122;SDS011;5101;49.038;8.710;2023-04-24T00:51:08;0.73;;;0.40;;
10122;SDS011;5101;49.038;8.710;2023-04-24T00:53:34;2.63;;;0.30;;
10122;SDS011;5101;49.038;8.710;2023-04-24T00:56:00;1.27;;;0.30;;
10122;SDS011;5101;49.038;8.710;2023-04-24T00:58:27;1.80;;;0.30;;
10122;SDS011;5101;49.038;8.710;2023-04-24T01:00:53;3.22;;;0.40;;
10122;SDS011;5101;49.038;8.710;2023-04-24T01:03:20;0.30;;;0.30;;
10122;SDS011;5101;49.038;8.710;2023-04-24T01:05:47;4.13;;;0.50;;
10122;SDS011;5101;49.038;8.710;2023-04-24T01:08:14;1.33;;;0.30;;
10122;SDS011;5101;49.038;8.710;2023-04-24T01:10:40;0.98;;;0.30;;
10122;SDS011;5101;49.038;8.710;2023-04-24T01:13:07;2.10;;;0.40;;
10122;SDS011;5101;49.038;8.710;2023-04-24T01:15:34;0.68;;;0.30;;
10122;SDS011;5101;49.038;8.710;2023-04-24T01:17:59;1.65;;;0.50;;
10122;SDS011;5101;49.038;8.710;2023-04-24T01:20:25;2.70;;;0.35;;
10122;SDS011;5101;49.038;8.710;2023-04-24T01:22:51;0.75;;;0.32;;
10122;SDS011;5101;49.038;8.710;2023-04-24T01:25:17;2.47;;;0.50;;
10122;SDS011;5101;49.038;8.710;2023-04-24T01:27:43;3.17;;;0.52;;
10122;SDS011;5101;49.038;8.710;2023-04-24T01:30:09;0.52;;;0.10;;
10122;SDS011;5101;49.038;8.710;2023-04-24T01:32:36;0.43;;;0.30;;
10122;SDS011;5101;49.038;8.710;2023-04-24T01:35:02;1.20;;;0.43;;
10122;SDS011;5101;49.038;8.710;2023-04-24T01:37:28;0.82;;;0.38;;
10122;SDS011;5101;49.038;8.710;2023-04-24T01:39:54;2.22;;;0.40;;
10122;SDS011;5101;49.038;8.710;2023-04-24T01:42:20;1.63;;;0.20;;
10122;SDS011;5101;49.038;8.710;2023-04-24T01:44:46;1.10;;;0.40;;
10122;SDS011;5101;49.038;8.710;2023-04-24T01:47:12;1.10;;;0.57;;
10122;SDS011;5101;49.038;8.710;2023-04-24T01:49:38;1.08;;;0.40;;
10122;SDS011;5101;49.038;8.710;2023-04-24T01:52:04;2.05;;;0.52;;
10122;SDS011;5101;49.038;8.710;2023-04-24T01:54:30;1.30;;;0.50;;
10122;SDS011;5101;49.038;8.710;2023-04-24T01:56:55;1.48;;;0.30;;
10122;SDS011;5101;49.038;8.710;2023-04-24T01:59:21;3.25;;;0.45;;
10122;SDS011;5101;49.038;8.710;2023-04-24T02:01:48;0.50;;;0.40;;
10122;SDS011;5101;49.038;8.710;2023-04-24T02:04:14;1.63;;;0.52;;
10122;SDS011;5101;49.038;8.710;2023-04-24T02:06:40;1.20;;;0.40;;
10122;SDS011;5101;49.038;8.710;2023-04-24T02:09:05;1.35;;;0.40;;
10122;SDS011;5101;49.038;8.710;2023-04-24T02:11:32;0.93;;;0.43;;
10122;SDS011;5101;49.038;8.710;2023-04-24T02:13:58;3.50;;;0.40;;
10122;SDS011;5101;49.038;8.710;2023-04-24T02:16:24;1.45;;;0.25;;
10122;SDS011;5101;49.038;8.710;2023-04-24T02:18:49;1.25;;;0.47;;
10122;SDS011;5101;49.038;8.710;2023-04-24T02:21:15;1.35;;;0.28;;
10122;SDS011;5101;49.038;8.710;2023-04-24T02:23:40;3.22;;;0.30;;
10122;SDS011;5101;49.038;8.710;2023-04-24T02:26:06;1.10;;;0.43;;
10122;SDS011;5101;49.038;8.710;2023-04-24T02:28:32;3.30;;;0.40;;
10122;SDS011;5101;49.038;8.710;2023-04-24T02:30:57;1.30;;;0.30;;
10122;SDS011;5101;49.038;8.710;2023-04-24T02:33:23;1.23;;;0.28;;
10122;SDS011;5101;49.038;8.710;2023-04-24T02:35:49;1.73;;;0.55;;
10122;SDS011;5101;49.038;8.710;2023-04-24T02:38:14;0.85;;;0.30;;
10122;SDS011;5101;49.038;8.710;2023-04-24T02:40:40;1.48;;;0.60;;
10122;SDS011;5101;49.038;8.710;2023-04-24T02:43:05;1.95;;;0.32;;
10122;SDS011;5101;49.038;8.710;2023-04-24T02:45:32;1.60;;;0.50;;
10122;SDS011;5101;49.038;8.710;2023-04-24T02:47:59;1.75;;;0.30;;
10122;SDS011;5101;49.038;8.710;2023-04-24T02:50:25;0.93;;;0.30;;
10122;SDS011;5101;49.038;8.710;2023-04-24T02:52:50;1.55;;;0.38;;
10122;SDS011;5101;49.038;8.710;2023-04-24T02:55:16;0.55;;;0.20;;
10122;SDS011;5101;49.038;8.710;2023-04-24T02:57:41;1.85;;;0.50;;
10122;SDS011;5101;49.038;8.710;2023-04-24T03:00:07;1.33;;;0.30;;
10122;SDS011;5101;49.038;8.710;2023-04-24T03:02:34;1.30;;;0.40;;
10122;SDS011;5101;49.038;8.710;2023-04-24T03:04:59;2.45;;;0.60;;
10122;SDS011;5101;49.038;8.710;2023-04-24T03:07:25;0.77;;;0.30;;
10122;SDS011;5101;49.038;8.710;2023-04-24T03:09:50;0.60;;;0.60;;
10122;SDS011;5101;49.038;8.710;2023-04-24T03:12:16;1.52;;;0.50;;
10122;SDS011;5101;49.038;8.710;2023-04-24T03:14:42;1.05;;;0.30;;
10122;SDS011;5101;49.038;8.710;2023-04-24T03:17:08;1.35;;;0.40;;
10122;SDS011;5101;49.038;8.710;2023-04-24T03:19:34;1.17;;;0.43;;
10122;SDS011;5101;49.038;8.710;2023-04-24T03:22:01;0.65;;;0.40;;
10122;SDS011;5101;49.038;8.710;2023-04-24T03:24:27;0.55;;;0.20;;
10122;SDS011;5101;49.038;8.710;2023-04-24T03:26:53;2.55;;;0.40;;
10122;SDS011;5101;49.038;8.710;2023-04-24T03:29:18;0.45;;;0.40;;
10122;SDS011;5101;49.038;8.710;2023-04-24T03:31:44;0.43;;;0.30;;
10122;SDS011;5101;49.038;8.710;2023-04-24T03:34:09;3.45;;;0.35;;
10122;SDS011;5101;49.038;8.710;2023-04-24T03:36:35;0.30;;;0.20;;
10122;SDS011;5101;49.038;8.710;2023-04-24T03:39:00;0.63;;;0.40;;
10122;SDS011;5101;49.038;8.710;2023-04-24T03:41:26;0.52;;;0.20;;
10122;SDS011;5101;49.038;8.710;2023-04-24T03:43:51;1.05;;;0.30;;
10122;SDS011;5101;49.038;8.710;2023-04-24T03:46:17;0.35;;;0.20;;
10122;SDS011;5101;49.038;8.710;2023-04-24T03:48:42;0.38;;;0.30;;
10122;SDS011;5101;49.038;8.710;2023-04-24T03:51:08;1.00;;;0.40;;
10122;SDS011;5101;49.038;8.710;2023-04-24T03:53:33;0.85;;;0.30;;
10122;SDS011;5101;49.038;8.710;2023-04-24T03:55:59;1.52;;;0.50;;
10122;SDS011;5101;49.038;8.710;2023-04-24T03:58:24;0.68;;;0.57;;
10122;SDS011;5101;49.038;8.710;2023-04-24T04:00:50;1.75;;;0.80;;
10122;SDS011;5101;49.038;8.710;2023-04-24T04:03:16;0.88;;;0.73;;
10122;SDS011;5101;49.038;8.710;2023-04-24T04:05:41;2.42;;;0.65;;
10122;SDS011;5101;49.038;8.710;2023-04-24T04:08:07;2.15;;;0.93;;
10122;SDS011;5101;49.038;8.710;2023-04-24T04:10:32;2.30;;;0.80;;
10122;SDS011;5101;49.038;8.710;2023-04-24T04:12:57;1.35;;;0.77;;
10122;SDS011;5101;49.038;8.710;2023-04-24T04:15:23;1.70;;;0.95;;
10122;SDS011;5101;49.038;8.710;2023-04-24T04:17:48;3.30;;;1.05;;
10122;SDS011;5101;49.038;8.710;2023-04-24T04:20:14;1.88;;;0.90;;
10122;SDS011;5101;49.038;8.710;2023-04-24T04:22:39;0.90;;;0.90;;
10122;SDS011;5101;49.038;8.710;2023-04-24T04:25:05;1.52;;;0.70;;
10122;SDS011;5101;49.038;8.710;2023-04-24T04:27:31;1.90;;;1.02;;
10122;SDS011;5101;49.038;8.710;2023-04-24T04:29:58;1.35;;;0.90;;
10122;SDS011;5101;49.038;8.710;2023-04-24T04:32:26;1.73;;;0.80;;
10122;SDS011;5101;49.038;8.710;2023-04-24T04:34:51;4.35;;;1.55;;
10122;SDS011;5101;49.038;8.710;2023-04-24T04:37:18;0.88;;;0.70;;
10122;SDS011;5101;49.038;8.710;2023-04-24T04:39:43;1.45;;;0.80;;
10122;SDS011;5101;49.038;8.710;2023-04-24T04:42:09;1.65;;;0.90;;
10122;SDS011;5101;49.038;8.710;2023-04-24T04:44:34;1.67;;;0.80;;
10122;SDS011;5101;49.038;8.710;2023-04-24T04:47:01;1.00;;;0.80;;
10122;SDS011;5101;49.038;8.710;2023-04-24T04:49:30;1.40;;;0.90;;
10122;SDS011;5101;49.038;8.710;2023-04-24T04:51:56;1.10;;;0.80;;
10122;SDS011;5101;49.038;8.710;2023-04-24T04:54:22;1.23;;;0.93;;
10122;SDS011;5101;49.038;8.710;2023-04-24T04:56:49;2.50;;;1.23;;
10122;SDS011;5101;49.038;8.710;2023-04-24T04:59:15;0.73;;;0.73;;
10122;SDS011;5101;49.038;8.710;2023-04-24T05:01:41;1.35;;;1.02;;
10122;SDS011;5101;49.038;8.710;2023-04-24T05:04:06;1.48;;;1.10;;
10122;SDS011;5101;49.038;8.710;2023-04-24T05:06:32;1.73;;;1.20;;
10122;SDS011;5101;49.038;8.710;2023-04-24T05:08:57;1.60;;;1.50;;
10122;SDS011;5101;49.038;8.710;2023-04-24T05:11:23;1.30;;;1.20;;
10122;SDS011;5101;49.038;8.710;2023-04-24T05:13:48;3.05;;;1.40;;
10122;SDS011;5101;49.038;8.710;2023-04-24T05:16:14;2.28;;;1.67;;
10122;SDS011;5101;49.038;8.710;2023-04-24T05:18:39;2.08;;;1.88;;
10122;SDS011;5101;49.038;8.710;2023-04-24T05:21:05;2.67;;;1.60;;
10122;SDS011;5101;49.038;8.710;2023-04-24T05:23:30;1.98;;;1.70;;
10122;SDS011;5101;49.038;8.710;2023-04-24T05:25:56;3.05;;;1.58;;
10122;SDS011;5101;49.038;8.710;2023-04-24T05:28:22;4.97;;;1.75;;
10122;SDS011;5101;49.038;8.710;2023-04-24T05:30:47;1.88;;;1.75;;
10122;SDS011;5101;49.038;8.710;2023-04-24T05:33:13;1.80;;;1.70;;
10122;SDS011;5101;49.038;8.710;2023-04-24T05:35:39;3.70;;;1.67;;
10122;SDS011;5101;49.038;8.710;2023-04-24T05:38:10;3.42;;;1.73;;
10122;SDS011;5101;49.038;8.710;2023-04-24T05:40:37;3.08;;;1.13;;
10122;SDS011;5101;49.038;8.710;2023-04-24T05:43:02;3.50;;;1.80;;
10122;SDS011;5101;49.038;8.710;2023-04-24T05:45:28;1.50;;;1.35;;
10122;SDS011;5101;49.038;8.710;2023-04-24T05:47:53;2.38;;;1.60;;
10122;SDS011;5101;49.038;8.710;2023-04-24T05:50:20;1.75;;;1.48;;
10122;SDS011;5101;49.038;8.710;2023-04-24T05:52:45;1.40;;;1.30;;
10122;SDS011;5101;49.038;8.710;2023-04-24T05:55:11;1.33;;;1.20;;
10122;SDS011;5101;49.038;8.710;2023-04-24T05:57:36;5.13;;;1.38;;
10122;SDS011;5101;49.038;8.710;2023-04-24T06:00:02;1.63;;;1.20;;
10122;SDS011;5101;49.038;8.710;2023-04-24T06:02:29;1.52;;;1.10;;
10122;SDS011;5101;49.038;8.710;2023-04-24T06:04:57;1.30;;;1.20;;
10122;SDS011;5101;49.038;8.710;2023-04-24T06:07:24;2.65;;;0.90;;
10122;SDS011;5101;49.038;8.710;2023-04-24T06:09:51;2.30;;;0.90;;
10122;SDS011;5101;49.038;8.710;2023-04-24T06:12:17;1.45;;;1.02;;
10122;SDS011;5101;49.038;8.710;2023-04-24T06:14:42;1.13;;;0.80;;
10122;SDS011;5101;49.038;8.710;2023-04-24T06:17:08;2.08;;;0.90;;
10122;SDS011;5101;49.038;8.710;2023-04-24T06:19:34;2.10;;;1.00;;
10122;SDS011;5101;49.038;8.710;2023-04-24T06:21:59;1.08;;;0.93;;
10122;SDS011;5101;49.038;8.710;2023-04-24T06:24:27;2.17;;;0.90;;
10122;SDS011;5101;49.038;8.710;2023-04-24T06:26:53;1.77;;;0.77;;
10122;SDS011;5101;49.038;8.710;2023-04-24T06:29:19;0.85;;;0.85;;
10122;SDS011;5101;49.038;8.710;2023-04-24T06:31:44;1.15;;;0.95;;
10122;SDS011;5101;49.038;8.710;2023-04-24T06:34:10;1.20;;;1.10;;
10122;SDS011;5101;49.038;8.710;2023-04-24T06:36:35;1.02;;;1.00;;
10122;SDS011;5101;49.038;8.710;2023-04-24T06:39:01;1.92;;;1.08;;
10122;SDS011;5101;49.038;8.710;2023-04-24T06:41:27;2.22;;;1.42;;
10122;SDS011;5101;49.038;8.710;2023-04-24T06:43:53;1.55;;;1.00;;
10122;SDS011;5101;49.038;8.710;2023-04-24T06:46:19;1.35;;;1.05;;
10122;SDS011;5101;49.038;8.710;2023-04-24T06:48:47;1.33;;;1.02;;
10122;SDS011;5101;49.038;8.710;2023-04-24T06:51:12;1.13;;;1.10;;
10122;SDS011;5101;49.038;8.710;2023-04-24T06:53:38;2.00;;;0.98;;
10122;SDS011;5101;49.038;8.710;2023-04-24T06:56:03;1.33;;;1.20;;
10122;SDS011;5101;49.038;8.710;2023-04-24T06:58:30;1.70;;;1.13;;
10122;SDS011;5101;49.038;8.710;2023-04-24T07:00:55;2.30;;;1.08;;
10122;SDS011;5101;49.038;8.710;2023-04-24T07:03:21;1.30;;;1.20;;
10122;SDS011;5101;49.038;8.710;2023-04-24T07:05:46;1.42;;;1.10;;
10122;SDS011;5101;49.038;8.710;2023-04-24T07:08:12;1.20;;;1.00;;
10122;SDS011;5101;49.038;8.710;2023-04-24T07:10:38;2.28;;;0.90;;
10122;SDS011;5101;49.038;8.710;2023-04-24T07:13:04;1.42;;;1.20;;
10122;SDS011;5101;49.038;8.710;2023-04-24T07:15:29;1.83;;;1.00;;
10122;SDS011;5101;49.038;8.710;2023-04-24T07:17:55;2.22;;;0.82;;
10122;SDS011;5101;49.038;8.710;2023-04-24T07:20:21;0.88;;;0.88;;
10122;SDS011;5101;49.038;8.710;2023-04-24T07:22:46;2.08;;;0.90;;
10122;SDS011;5101;49.038;8.710;2023-04-24T07:25:14;1.75;;;0.70;;
10122;SDS011;5101;49.038;8.710;2023-04-24T07:27:39;2.33;;;0.93;;
10122;SDS011;5101;49.038;8.710;2023-04-24T07:30:05;1.65;;;0.90;;
10122;SDS011;5101;49.038;8.710;2023-04-24T07:32:31;0.93;;;0.80;;
10122;SDS011;5101;49.038;8.710;2023-04-24T07:34:57;3.28;;;0.90;;
10122;SDS011;5101;49.038;8.710;2023-04-24T07:37:22;1.55;;;0.80;;
10122;SDS011;5101;49.038;8.710;2023-04-24T07:39:48;1.67;;;0.85;;
10122;SDS011;5101;49.038;8.710;2023-04-24T07:42:14;2.10;;;0.90;;
10122;SDS011;5101;49.038;8.710;2023-04-24T07:44:40;2.95;;;0.85;;
10122;SDS011;5101;49.038;8.710;2023-04-24T07:47:05;1.58;;;0.80;;
10122;SDS011;5101;49.038;8.710;2023-04-24T07:49:31;0.93;;;0.70;;
10122;SDS011;5101;49.038;8.710;2023-04-24T07:51:58;3.92;;;0.80;;
10122;SDS011;5101;49.038;8.710;2023-04-24T07:54:25;0.95;;;0.73;;
10122;SDS011;5101;49.038;8.710;2023-04-24T07:56:51;1.38;;;0.77;;
10122;SDS011;5101;49.038;8.710;2023-04-24T07:59:16;0.88;;;0.80;;
10122;SDS011;5101;49.038;8.710;2023-04-24T08:01:42;1.58;;;0.95;;
10122;SDS011;5101;49.038;8.710;2023-04-24T08:04:07;0.63;;;0.60;;
10122;SDS011;5101;49.038;8.710;2023-04-24T08:06:33;1.02;;;0.75;;
10122;SDS011;5101;49.038;8.710;2023-04-24T08:08:59;1.20;;;0.70;;
10122;SDS011;5101;49.038;8.710;2023-04-24T08:11:25;1.77;;;0.60;;
10122;SDS011;5101;49.038;8.710;2023-04-24T08:13:50;2.78;;;0.60;;
10122;SDS011;5101;49.038;8.710;2023-04-24T08:16:16;1.30;;;0.50;;
10122;SDS011;5101;49.038;8.710;2023-04-24T08:18:41;1.25;;;0.70;;
10122;SDS011;5101;49.038;8.710;2023-04-24T08:21:07;0.98;;;0.50;;
10122;SDS011;5101;49.038;8.710;2023-04-24T08:23:32;1.77;;;0.63;;
10122;SDS011;5101;49.038;8.710;2023-04-24T08:25:58;1.13;;;0.63;;
10122;SDS011;5101;49.038;8.710;2023-04-24T08:28:23;0.93;;;0.70;;
10122;SDS011;5101;49.038;8.710;2023-04-24T08:30:49;1.00;;;0.57;;
10122;SDS011;5101;49.038;8.710;2023-04-24T08:33:19;0.55;;;0.55;;
10122;SDS011;5101;49.038;8.710;2023-04-24T08:35:48;4.82;;;0.60;;
10122;SDS011;5101;49.038;8.710;2023-04-24T08:38:13;0.95;;;0.50;;
10122;SDS011;5101;49.038;8.710;2023-04-24T08:40:39;1.70;;;0.45;;
10122;SDS011;5101;49.038;8.710;2023-04-24T08:43:05;2.22;;;0.63;;
10122;SDS011;5101;49.038;8.710;2023-04-24T08:45:31;2.22;;;1.00;;
10122;SDS011;5101;49.038;8.710;2023-04-24T08:47:57;1.10;;;0.77;;
10122;SDS011;5101;49.038;8.710;2023-04-24T08:50:24;1.80;;;0.40;;
10122;SDS011;5101;49.038;8.710;2023-04-24T08:52:51;0.32;;;0.22;;
10122;SDS011;5101;49.038;8.710;2023-04-24T08:55:18;0.85;;;0.30;;
10122;SDS011;5101;49.038;8.710;2023-04-24T08:57:45;1.50;;;0.30;;
10122;SDS011;5101;49.038;8.710;2023-04-24T09:00:15;0.75;;;0.50;;
10122;SDS011;5101;49.038;8.710;2023-04-24T09:02:44;0.73;;;0.50;;
10122;SDS011;5101;49.038;8.710;2023-04-24T09:05:12;1.75;;;0.50;;
10122;SDS011;5101;49.038;8.710;2023-04-24T09:07:38;0.60;;;0.60;;
10122;SDS011;5101;49.038;8.710;2023-04-24T09:10:06;2.95;;;0.80;;
10122;SDS011;5101;49.038;8.710;2023-04-24T09:12:33;1.95;;;0.60;;
10122;SDS011;5101;49.038;8.710;2023-04-24T09:15:00;1.77;;;0.80;;
10122;SDS011;5101;49.038;8.710;2023-04-24T09:17:28;3.58;;;0.50;;
10122;SDS011;5101;49.038;8.710;2023-04-24T09:19:53;1.75;;;0.70;;
10122;SDS011;5101;49.038;8.710;2023-04-24T09:22:19;1.05;;;0.68;;
10122;SDS011;5101;49.038;8.710;2023-04-24T09:24:46;1.10;;;0.57;;
10122;SDS011;5101;49.038;8.710;2023-04-24T09:27:12;3.13;;;0.60;;
10122;SDS011;5101;49.038;8.710;2023-04-24T09:29:38;1.25;;;0.68;;
10122;SDS011;5101;49.038;8.710;2023-04-24T09:32:19;2.50;;;0.70;;
10122;SDS011;5101;49.038;8.710;2023-04-24T09:34:47;1.05;;;0.70;;
10122;SDS011;5101;49.038;8.710;2023-04-24T09:37:26;1.17;;;0.82;;
10122;SDS011;5101;49.038;8.710;2023-04-24T09:40:09;1.00;;;0.60;;
10122;SDS011;5101;49.038;8.710;2023-04-24T09:42:40;1.17;;;0.70;;
10122;SDS011;5101;49.038;8.710;2023-04-24T09:45:16;0.98;;;0.80;;
10122;SDS011;5101;49.038;8.710;2023-04-24T09:47:41;1.83;;;0.85;;
10122;SDS011;5101;49.038;8.710;2023-04-24T09:52:40;0.95;;;0.85;;
10122;SDS011;5101;49.038;8.710;2023-04-24T09:55:13;1.10;;;0.70;;
10122;SDS011;5101;49.038;8.710;2023-04-24T09:58:02;2.38;;;0.80;;
10122;SDS011;5101;49.038;8.710;2023-04-24T10:00:31;2.38;;;1.10;;
10122;SDS011;5101;49.038;8.710;2023-04-24T10:03:01;1.17;;;1.05;;
10122;SDS011;5101;49.038;8.710;2023-04-24T10:05:34;1.58;;;1.33;;
10122;SDS011;5101;49.038;8.710;2023-04-24T10:08:09;1.23;;;1.13;;
10122;SDS011;5101;49.038;8.710;2023-04-24T10:10:43;1.92;;;1.50;;
10122;SDS011;5101;49.038;8.710;2023-04-24T10:13:10;1.98;;;1.65;;
10122;SDS011;5101;49.038;8.710;2023-04-24T10:15:37;2.40;;;1.58;;
10122;SDS011;5101;49.038;8.710;2023-04-24T10:18:04;1.98;;;1.60;;
10122;SDS011;5101;49.038;8.710;2023-04-24T10:20:31;1.48;;;1.17;;
10122;SDS011;5101;49.038;8.710;2023-04-24T10:22:59;1.40;;;1.30;;
10122;SDS011;5101;49.038;8.710;2023-04-24T10:25:26;2.08;;;1.13;;
10122;SDS011;5101;49.038;8.710;2023-04-24T10:27:53;1.35;;;1.13;;
10122;SDS011;5101;49.038;8.710;2023-04-24T10:30:22;4.43;;;1.15;;
10122;SDS011;5101;49.038;8.710;2023-04-24T10:32:48;1.15;;;1.02;;
10122;SDS011;5101;49.038;8.710;2023-04-24T10:35:14;1.75;;;1.10;;
10122;SDS011;5101;49.038;8.710;2023-04-24T10:37:42;1.85;;;1.00;;
10122;SDS011;5101;49.038;8.710;2023-04-24T10:40:11;1.42;;;1.00;;
10122;SDS011;5101;49.038;8.710;2023-04-24T10:42:40;0.80;;;0.70;;
10122;SDS011;5101;49.038;8.710;2023-04-24T10:45:18;1.40;;;1.10;;
10122;SDS011;5101;49.038;8.710;2023-04-24T10:47:53;1.15;;;1.02;;
10122;SDS011;5101;49.038;8.710;2023-04-24T10:50:30;2.03;;;1.13;;
10122;SDS011;5101;49.038;8.710;2023-04-24T10:53:12;3.40;;;1.00;;
10122;SDS011;5101;49.038;8.710;2023-04-24T10:58:24;1.08;;;0.90;;
10122;SDS011;5101;49.038;8.710;2023-04-24T11:01:00;1.13;;;1.02;;
10122;SDS011;5101;49.038;8.710;2023-04-24T11:03:26;2.17;;;1.20;;
10122;SDS011;5101;49.038;8.710;2023-04-24T11:06:03;1.30;;;1.20;;
10122;SDS011;5101;49.038;8.710;2023-04-24T11:08:43;4.53;;;1.50;;
10122;SDS011;5101;49.038;8.710;2023-04-24T11:11:13;2.00;;;1.20;;
10122;SDS011;5101;49.038;8.710;2023-04-24T11:14:00;1.00;;;1.00;;
10122;SDS011;5101;49.038;8.710;2023-04-24T11:16:30;1.88;;;1.10;;
10122;SDS011;5101;49.038;8.710;2023-04-24T11:21:45;2.03;;;1.13;;
10122;SDS011;5101;49.038;8.710;2023-04-24T11:26:56;1.50;;;1.20;;
10122;SDS011;5101;49.038;8.710;2023-04-24T11:37:25;1.65;;;1.55;;
10122;SDS011;5101;49.038;8.710;2023-04-24T11:39:58;3.40;;;1.77;;
10122;SDS011;5101;49.038;8.710;2023-04-24T11:42:24;2.17;;;1.73;;
10122;SDS011;5101;49.038;8.710;2023-04-24T11:44:51;2.00;;;1.65;;
10122;SDS011;5101;49.038;8.710;2023-04-24T11:47:18;2.08;;;1.77;;
10122;SDS011;5101;49.038;8.710;2023-04-24T11:49:44;2.22;;;2.03;;
10122;SDS011;5101;49.038;8.710;2023-04-24T11:52:09;3.78;;;2.40;;
10122;SDS011;5101;49.038;8.710;2023-04-24T11:54:35;2.45;;;2.25;;
10122;SDS011;5101;49.038;8.710;2023-04-24T11:57:03;7.15;;;2.47;;
10122;SDS011;5101;49.038;8.710;2023-04-24T11:59:34;2.50;;;2.30;;
10122;SDS011;5101;49.038;8.710;2023-04-24T12:02:01;2.80;;;2.40;;
10122;SDS011;5101;49.038;8.710;2023-04-24T12:04:27;2.80;;;2.60;;
10122;SDS011;5101;49.038;8.710;2023-04-24T12:07:04;3.65;;;3.00;;
10122;SDS011;5101;49.038;8.710;2023-04-24T12:09:46;2.55;;;2.28;;
10122;SDS011;5101;49.038;8.710;2023-04-24T12:12:13;2.42;;;1.90;;
10122;SDS011;5101;49.038;8.710;2023-04-24T12:17:09;1.67;;;1.52;;
10122;SDS011;5101;49.038;8.710;2023-04-24T12:19:34;3.95;;;1.63;;
10122;SDS011;5101;49.038;8.710;2023-04-24T12:22:00;1.95;;;1.52;;
10122;SDS011;5101;49.038;8.710;2023-04-24T12:24:30;2.17;;;1.55;;
10122;SDS011;5101;49.038;8.710;2023-04-24T12:26:56;1.70;;;1.60;;
10122;SDS011;5101;49.038;8.710;2023-04-24T12:29:23;1.52;;;1.40;;
10122;SDS011;5101;49.038;8.710;2023-04-24T12:31:49;4.03;;;2.05;;
10122;SDS011;5101;49.038;8.710;2023-04-24T12:34:20;2.75;;;1.83;;
10122;SDS011;5101;49.038;8.710;2023-04-24T12:36:46;3.63;;;1.95;;
10122;SDS011;5101;49.038;8.710;2023-04-24T12:39:16;1.92;;;1.80;;
10122;SDS011;5101;49.038;8.710;2023-04-24T12:41:58;1.98;;;1.83;;
10122;SDS011;5101;49.038;8.710;2023-04-24T12:44:36;1.70;;;1.60;;
10122;SDS011;5101;49.038;8.710;2023-04-24T12:47:02;2.08;;;1.88;;
10122;SDS011;5101;49.038;8.710;2023-04-24T12:49:29;1.80;;;1.70;;
10122;SDS011;5101;49.038;8.710;2023-04-24T12:51:55;2.65;;;1.80;;
10122;SDS011;5101;49.038;8.710;2023-04-24T12:54:20;4.97;;;2.90;;
10122;SDS011;5101;49.038;8.710;2023-04-24T12:56:47;2.25;;;1.92;;
10122;SDS011;5101;49.038;8.710;2023-04-24T12:59:12;1.80;;;1.63;;
10122;SDS011;5101;49.038;8.710;2023-04-24T13:01:38;2.42;;;1.90;;
10122;SDS011;5101;49.038;8.710;2023-04-24T13:04:04;3.15;;;1.60;;
10122;SDS011;5101;49.038;8.710;2023-04-24T13:06:30;4.45;;;2.00;;
10122;SDS011;5101;49.038;8.710;2023-04-24T13:08:56;3.05;;;1.88;;
10122;SDS011;5101;49.038;8.710;2023-04-24T13:11:22;2.85;;;1.80;;
10122;SDS011;5101;49.038;8.710;2023-04-24T13:13:48;1.70;;;1.60;;
10122;SDS011;5101;49.038;8.710;2023-04-24T13:16:14;2.42;;;1.83;;
10122;SDS011;5101;49.038;8.710;2023-04-24T13:18:40;1.63;;;1.52;;
10122;SDS011;5101;49.038;8.710;2023-04-24T13:21:05;2.22;;;1.67;;
10122;SDS011;5101;49.038;8.710;2023-04-24T13:23:31;1.60;;;1.50;;
10122;SDS011;5101;49.038;8.710;2023-04-24T13:25:56;2.15;;;1.70;;
10122;SDS011;5101;49.038;8.710;2023-04-24T13:28:22;3.63;;;2.05;;
10122;SDS011;5101;49.038;8.710;2023-04-24T13:30:49;1.95;;;1.38;;
10122;SDS011;5101;49.038;8.710;2023-04-24T13:33:15;2.00;;;1.80;;
10122;SDS011;5101;49.038;8.710;2023-04-24T13:35:40;8.23;;;1.65;;
10122;SDS011;5101;49.038;8.710;2023-04-24T13:38:06;2.17;;;1.98;;
10122;SDS011;5101;49.038;8.710;2023-04-24T13:40:31;2.58;;;1.83;;
10122;SDS011;5101;49.038;8.710;2023-04-24T13:42:57;2.08;;;1.70;;
10122;SDS011;5101;49.038;8.710;2023-04-24T13:45:23;2.38;;;1.70;;
10122;SDS011;5101;49.038;8.710;2023-04-24T13:47:48;3.45;;;1.80;;
10122;SDS011;5101;49.038;8.710;2023-04-24T13:50:14;2.05;;;1.50;;
10122;SDS011;5101;49.038;8.710;2023-04-24T13:52:40;2.15;;;1.60;;
10122;SDS011;5101;49.038;8.710;2023-04-24T13:55:06;1.92;;;1.52;;
10122;SDS011;5101;49.038;8.710;2023-04-24T13:57:31;2.20;;;2.00;;
10122;SDS011;5101;49.038;8.710;2023-04-24T13:59:57;1.70;;;1.60;;
10122;SDS011;5101;49.038;8.710;2023-04-24T14:02:26;2.05;;;1.60;;
10122;SDS011;5101;49.038;8.710;2023-04-24T14:04:52;2.13;;;1.60;;
10122;SDS011;5101;49.038;8.710;2023-04-24T14:07:18;2.13;;;1.50;;
10122;SDS011;5101;49.038;8.710;2023-04-24T14:09:43;1.90;;;1.70;;
10122;SDS011;5101;49.038;8.710;2023-04-24T14:12:08;1.88;;;1.50;;
10122;SDS011;5101;49.038;8.710;2023-04-24T14:14:34;2.55;;;1.98;;
10122;SDS011;5101;49.038;8.710;2023-04-24T14:17:00;1.85;;;1.67;;
10122;SDS011;5101;49.038;8.710;2023-04-24T14:19:25;1.75;;;1.65;;
10122;SDS011;5101;49.038;8.710;2023-04-24T14:21:51;2.28;;;1.73;;
10122;SDS011;5101;49.038;8.710;2023-04-24T14:24:16;2.38;;;1.65;;
10122;SDS011;5101;49.038;8.710;2023-04-24T14:26:42;1.98;;;1.77;;
10122;SDS011;5101;49.038;8.710;2023-04-24T14:29:07;4.00;;;1.80;;
10122;SDS011;5101;49.038;8.710;2023-04-24T14:31:33;2.17;;;2.00;;
10122;SDS011;5101;49.038;8.710;2023-04-24T14:33:58;2.75;;;1.77;;
10122;SDS011;5101;49.038;8.710;2023-04-24T14:36:24;1.33;;;1.23;;
10122;SDS011;5101;49.038;8.710;2023-04-24T14:38:49;3.40;;;1.60;;
10122;SDS011;5101;49.038;8.710;2023-04-24T14:41:15;2.97;;;1.55;;
10122;SDS011;5101;49.038;8.710;2023-04-24T14:43:40;1.85;;;1.48;;
10122;SDS011;5101;49.038;8.710;2023-04-24T14:46:06;1.45;;;1.27;;
10122;SDS011;5101;49.038;8.710;2023-04-24T14:48:32;2.60;;;1.83;;
10122;SDS011;5101;49.038;8.710;2023-04-24T14:50:57;1.77;;;1.40;;
10122;SDS011;5101;49.038;8.710;2023-04-24T14:53:23;1.73;;;1.60;;
10122;SDS011;5101;49.038;8.710;2023-04-24T14:55:48;1.77;;;1.42;;
10122;SDS011;5101;49.038;8.710;2023-04-24T14:58:14;2.88;;;1.40;;
10122;SDS011;5101;49.038;8.710;2023-04-24T15:00:39;1.80;;;1.15;;
10122;SDS011;5101;49.038;8.710;2023-04-24T15:03:05;2.67;;;1.25;;
10122;SDS011;5101;49.038;8.710;2023-04-24T15:05:31;2.45;;;1.42;;
10122;SDS011;5101;49.038;8.710;2023-04-24T15:07:56;1.48;;;1.30;;
10122;SDS011;5101;49.038;8.710;2023-04-24T15:10:22;2.30;;;1.35;;
10122;SDS011;5101;49.038;8.710;2023-04-24T15:12:48;2.08;;;1.13;;
10122;SDS011;5101;49.038;8.710;2023-04-24T15:15:14;2.08;;;1.10;;
10122;SDS011;5101;49.038;8.710;2023-04-24T15:17:40;1.55;;;1.20;;